Inversion Research: Below Escarpment

*Note: All times are displayed in the local standard time of the station location.
**Rain - Equipment is designed to accurately record liquid precipitation; under conditions when precipitation is not in liquid form, the data displayed may not properly reflect rainfall values.

Date Max Temp
(°C)
Min Temp
(°C)
Avg Temp
(°C)
Rain (mm) Avg RH (%)
Fri, Aug 23, 2019 23.2 12.7 18.8 - 78.5
Thu, Aug 22, 2019 23.7 17.1 20.8 - 74.7
Wed, Aug 21, 2019 29.2 19.9 24.5 - 91.5
Tue, Aug 20, 2019 30.4 15.6 23.3 - 86.3
Mon, Aug 19, 2019 28.0 18.6 23.5 - 90.0
Sun, Aug 18, 2019 28.9 19.7 23.8 - 92.1
Sat, Aug 17, 2019 28.7 17.7 22.6 - 94.1
DateTime Avg Temp (°C) Rain (mm) RH (%)
Sat, Aug 24, 2019 18:00 21.7 - 63.5
Sat, Aug 24, 2019 17:00 21.8 - 61.1
Sat, Aug 24, 2019 16:00 21.6 - 59.9
Sat, Aug 24, 2019 15:00 21.6 - 62.2
Sat, Aug 24, 2019 14:00 21.3 - 69.0
Sat, Aug 24, 2019 13:00 21.3 - 68.5
Sat, Aug 24, 2019 12:00 20.6 - 69.2
Sat, Aug 24, 2019 11:00 20.1 - 71.3
Sat, Aug 24, 2019 10:00 19.8 - 73.5
Sat, Aug 24, 2019 09:00 18.1 - 85.0
Sat, Aug 24, 2019 08:00 15.1 - 99.9
Sat, Aug 24, 2019 07:00 11.9 - 99.9
Sat, Aug 24, 2019 06:00 11.6 - 99.9
Sat, Aug 24, 2019 05:00 12.6 - 99.9
Sat, Aug 24, 2019 04:00 12.7 - 99.9
Sat, Aug 24, 2019 03:00 13.8 - 98.6
Sat, Aug 24, 2019 02:00 16.2 - 83.4
Sat, Aug 24, 2019 01:00 16.6 - 80.3
Sat, Aug 24, 2019 00:00 17.3 - 76.0
Fri, Aug 23, 2019 23:00 17.9 - 71.7
Fri, Aug 23, 2019 22:00 19.1 - 67.9
Fri, Aug 23, 2019 21:00 18.1 - 83.2
Fri, Aug 23, 2019 20:00 20.3 - 70.5
Fri, Aug 23, 2019 19:00 20.9 - 66.0
Fri, Aug 23, 2019 18:00 22.6 - 56.9
Fri, Aug 23, 2019 17:00 23.0 - 55.0
Fri, Aug 23, 2019 16:00 22.9 - 57.8
Fri, Aug 23, 2019 15:00 22.8 - 59.4
Fri, Aug 23, 2019 14:00 22.2 - 61.2
Fri, Aug 23, 2019 13:00 21.8 - 68.7
Fri, Aug 23, 2019 12:00 21.5 - 73.0
Fri, Aug 23, 2019 11:00 20.7 - 79.5
Fri, Aug 23, 2019 10:00 19.8 - 84.6
Fri, Aug 23, 2019 09:00 18.9 - 90.1
Fri, Aug 23, 2019 08:00 16.2 - 99.9
Fri, Aug 23, 2019 07:00 12.9 - 99.9
Fri, Aug 23, 2019 06:00 13.5 - 99.9
Fri, Aug 23, 2019 05:00 14.7 - 99.9
Fri, Aug 23, 2019 04:00 15.5 - 99.9
Fri, Aug 23, 2019 03:00 15.2 - 99.4
Fri, Aug 23, 2019 02:00 16.2 - 88.8
Fri, Aug 23, 2019 01:00 17.9 - 75.3
Fri, Aug 23, 2019 00:00 18.7 - 71.3
Thu, Aug 22, 2019 23:00 19.1 - 73.6
Thu, Aug 22, 2019 22:00 17.9 - 87.4
Thu, Aug 22, 2019 21:00 18.1 - 92.9
Thu, Aug 22, 2019 20:00 22.1 - 69.7
Thu, Aug 22, 2019 19:00 23.4 - 58.3


asterix Register now to access more data! asterix